Time;durP1;ratioP1;P1;durP2;ratioP2;P2;SDS_P1;SDS_P2;PMS_P1;PMS_P2;Temp;Humidity;BMP_temperature;BMP_pressure;BME280_temperature;BME280_humidity;BME280_pressure;Samples;Min_cycle;Max_cycle;Signal;HPM_P1;HPM_P2
2021/12/29 00:00:24;;;;;;;;;;;9.90;99.90;;;;;;4984089;28;19913;-76
2021/12/29 00:02:50;;;;;;;;;;;9.90;99.90;;;;;;4999710;28;19991;-76
2021/12/29 00:05:15;;;;;;;;;;;9.90;99.90;;;;;;4999541;28;19956;-76
2021/12/29 00:07:41;;;;;;;;;;;9.80;99.90;;;;;;5000289;28;19906;-76
2021/12/29 00:10:07;;;;;;;;;;;9.90;99.90;;;;;;5000323;28;19996;-76
2021/12/29 00:12:39;;;;;;;;;;;9.90;99.90;;;;;;5000806;28;19919;-77
2021/12/29 00:15:05;;;;;;;;;;;9.90;99.90;;;;;;5000989;28;19984;-76
2021/12/29 00:17:31;;;;;;;;;;;9.90;99.90;;;;;;4999994;28;20416;-76
2021/12/29 00:19:56;;;;;;;;;;;9.90;99.90;;;;;;5001120;28;19920;-76
2021/12/29 00:22:22;;;;;;;;;;;9.90;99.90;;;;;;4984327;28;19921;-82
2021/12/29 00:24:47;;;;;;;;;;;9.80;99.90;;;;;;5001242;28;19960;-76
2021/12/29 00:27:13;;;;;;;;;;;9.90;99.90;;;;;;4984533;28;19964;-76
2021/12/29 00:29:38;;;;;;;;;;;9.90;99.90;;;;;;5000997;28;20318;-82
2021/12/29 00:32:04;;;;;;;;;;;9.90;99.90;;;;;;5000989;28;19913;-75
2021/12/29 00:34:29;;;;;;;;;;;9.90;99.90;;;;;;5002396;28;19913;-76
2021/12/29 00:36:55;;;;;;;;;;;9.90;99.90;;;;;;5002187;28;20342;-77
2021/12/29 00:39:20;;;;;;;;;;;10.00;99.90;;;;;;4984271;28;19976;-75
2021/12/29 00:41:46;;;;;;;;;;;9.90;99.90;;;;;;5001389;28;19967;-74
2021/12/29 00:44:11;;;;;;;;;;;9.90;99.90;;;;;;4999937;28;20347;-75
2021/12/29 00:46:38;;;;;;;;;;;9.90;99.90;;;;;;4999116;28;20282;-76
2021/12/29 00:49:04;;;;;;;;;;;9.90;99.90;;;;;;5000637;28;19906;-75
2021/12/29 00:51:29;;;;;;;;;;;9.90;99.90;;;;;;5000316;28;19906;-75
2021/12/29 00:53:55;;;;;;;;;;;9.90;99.90;;;;;;5000264;28;20008;-75
2021/12/29 00:56:20;;;;;;;;;;;9.90;99.90;;;;;;5000218;28;19928;-74
2021/12/29 00:58:46;;;;;;;;;;;9.90;99.90;;;;;;4999033;28;19964;-75
2021/12/29 01:01:12;;;;;;;;;;;9.90;99.90;;;;;;4996492;28;19909;-76
2021/12/29 01:03:38;;;;;;;;;;;9.90;99.90;;;;;;4997355;28;19914;-75
2021/12/29 01:06:04;;;;;;;;;;;9.90;99.90;;;;;;4997290;28;19968;-75
2021/12/29 01:08:30;;;;;;;;;;;9.90;99.90;;;;;;4997153;28;19906;-75
2021/12/29 01:10:56;;;;;;;;;;;9.90;99.90;;;;;;4996225;28;19928;-75
2021/12/29 01:13:29;;;;;;;;;;;9.90;99.90;;;;;;4997143;28;20373;-75
2021/12/29 01:16:37;;;;;;;;;;;9.90;99.90;;;;;;4996402;28;19913;-76
2021/12/29 01:18:44;;;;;;;;;;;9.90;99.90;;;;;;4996844;28;19929;-78
2021/12/29 01:21:10;;;;;;;;;;;9.90;99.90;;;;;;4997343;28;20342;-76
2021/12/29 01:23:35;;;;;;;;;;;10.00;99.90;;;;;;4998473;28;20370;-76
2021/12/29 01:26:01;;;;;;;;;;;10.00;99.90;;;;;;4998111;28;19998;-76
2021/12/29 01:28:26;;;;;;;;;;;10.00;99.90;;;;;;4980048;28;19921;-75
2021/12/29 01:30:52;;;;;;;;;;;10.00;99.90;;;;;;4996434;28;20351;-75
2021/12/29 01:33:18;;;;;;;;;;;9.90;99.90;;;;;;4998108;28;20019;-76
2021/12/29 01:35:44;;;;;;;;;;;9.90;99.90;;;;;;4998571;28;19910;-74
2021/12/29 01:38:09;;;;;;;;;;;9.90;99.90;;;;;;4997373;28;20266;-77
2021/12/29 01:40:36;;;;;;;;;;;10.00;99.90;;;;;;4997034;28;20334;-75
2021/12/29 01:43:02;;;;;;;;;;;9.90;99.90;;;;;;4997114;28;19949;-75
2021/12/29 01:45:28;;;;;;;;;;;9.90;99.90;;;;;;4997007;28;20012;-76
2021/12/29 01:47:53;;;;;;;;;;;9.90;99.90;;;;;;4998265;28;19952;-77
2021/12/29 01:50:19;;;;;;;;;;;9.90;99.90;;;;;;4997832;28;19913;-77
2021/12/29 01:52:54;;;;;;;;;;;9.90;99.90;;;;;;4997787;28;19913;-79
2021/12/29 01:55:19;;;;;;;;;;;9.90;99.90;;;;;;4997140;28;19958;-78
2021/12/29 01:57:45;;;;;;;;;;;9.90;99.90;;;;;;4995513;28;19906;-78
2021/12/29 02:00:21;;;;;;;;;;;9.80;99.90;;;;;;4996547;28;19917;-78
2021/12/29 02:02:47;;;;;;;;;;;9.80;99.90;;;;;;4995361;28;20009;-76
2021/12/29 02:05:14;;;;;;;;;;;9.80;99.90;;;;;;4996963;28;19952;-78
2021/12/29 02:07:40;;;;;;;;;;;9.80;99.90;;;;;;4979674;28;20366;-77
2021/12/29 02:10:07;;;;;;;;;;;9.90;99.90;;;;;;4995444;28;19906;-77
2021/12/29 02:12:33;;;;;;;;;;;9.80;99.90;;;;;;4996096;28;19960;-84
2021/12/29 02:14:59;;;;;;;;;;;9.90;99.90;;;;;;4996365;28;19943;-77
2021/12/29 02:17:24;;;;;;;;;;;9.90;99.90;;;;;;4995074;28;19921;-77
2021/12/29 02:19:51;;;;;;;;;;;9.90;99.90;;;;;;4994722;28;19957;-77
2021/12/29 02:22:35;;;;;;;;;;;9.80;99.90;;;;;;4995365;28;19921;-77
2021/12/29 02:27:46;;;;;;;;;;;9.80;99.90;;;;;;4995551;28;19909;-77
2021/12/29 02:30:12;;;;;;;;;;;9.80;99.90;;;;;;4996340;28;20005;-76
2021/12/29 02:32:38;;;;;;;;;;;9.80;99.90;;;;;;4996115;28;19910;-77
2021/12/29 02:35:04;;;;;;;;;;;9.80;99.90;;;;;;4994933;28;19910;-75
2021/12/29 02:37:30;;;;;;;;;;;9.80;99.90;;;;;;4978751;28;20278;-76
2021/12/29 02:39:56;;;;;;;;;;;9.80;99.90;;;;;;4996738;28;19905;-76
2021/12/29 02:42:25;;;;;;;;;;;9.80;99.90;;;;;;4994712;28;19909;-77
2021/12/29 02:44:52;;;;;;;;;;;9.80;99.90;;;;;;4995866;28;19906;-77
2021/12/29 02:47:18;;;;;;;;;;;9.80;99.90;;;;;;4994210;28;20285;-77
2021/12/29 02:49:45;;;;;;;;;;;9.80;99.90;;;;;;4978363;28;19913;-77
2021/12/29 02:52:14;;;;;;;;;;;9.80;99.90;;;;;;4978034;28;19910;-77
2021/12/29 02:54:42;;;;;;;;;;;9.80;99.90;;;;;;4993978;28;19905;-78
2021/12/29 02:57:08;;;;;;;;;;;9.80;99.90;;;;;;4993971;28;20013;-76
2021/12/29 02:59:35;;;;;;;;;;;9.80;99.90;;;;;;4995335;28;20008;-76
2021/12/29 03:02:01;;;;;;;;;;;9.70;99.90;;;;;;4994255;28;19912;-75
2021/12/29 03:04:28;;;;;;;;;;;9.80;99.90;;;;;;4994053;28;19964;-77
2021/12/29 03:06:55;;;;;;;;;;;9.70;99.90;;;;;;4978372;28;19933;-78
2021/12/29 03:09:21;;;;;;;;;;;9.70;99.90;;;;;;4977784;28;20282;-77
2021/12/29 03:11:47;;;;;;;;;;;9.70;99.90;;;;;;4995585;28;19917;-77
2021/12/29 03:14:14;;;;;;;;;;;9.70;99.90;;;;;;4993826;28;19910;-76
2021/12/29 03:16:40;;;;;;;;;;;9.80;99.90;;;;;;4993947;28;19956;-84
2021/12/29 03:19:05;;;;;;;;;;;9.70;99.90;;;;;;4995014;28;19945;-76
2021/12/29 03:21:33;;;;;;;;;;;9.70;99.90;;;;;;4995214;28;20410;-76
2021/12/29 03:23:58;;;;;;;;;;;9.70;99.90;;;;;;4994088;28;19906;-76
2021/12/29 03:26:24;;;;;;;;;;;9.70;99.90;;;;;;4994169;28;19917;-75
2021/12/29 03:28:51;;;;;;;;;;;9.80;99.90;;;;;;4995250;28;19905;-76
2021/12/29 03:31:18;;;;;;;;;;;9.70;99.90;;;;;;4994994;28;19940;-76
2021/12/29 03:33:44;;;;;;;;;;;9.80;99.90;;;;;;4993815;28;19906;-78
2021/12/29 03:36:11;;;;;;;;;;;9.70;99.90;;;;;;4995410;28;19929;-77
2021/12/29 03:38:37;;;;;;;;;;;9.70;99.90;;;;;;4977174;28;19921;-76
2021/12/29 03:41:04;;;;;;;;;;;9.70;99.90;;;;;;4994291;28;20294;-77
2021/12/29 03:43:32;;;;;;;;;;;9.70;99.90;;;;;;4993457;28;19953;-75
2021/12/29 03:45:58;;;;;;;;;;;9.70;99.90;;;;;;4993105;28;20363;-76
2021/12/29 03:48:25;;;;;;;;;;;9.70;99.90;;;;;;4993135;28;19905;-76
2021/12/29 03:50:50;;;;;;;;;;;9.70;99.90;;;;;;4994459;28;19906;-77
2021/12/29 03:53:16;;;;;;;;;;;9.70;99.90;;;;;;4993381;28;20338;-77
2021/12/29 03:55:43;;;;;;;;;;;9.70;99.90;;;;;;4993210;28;19905;-76
2021/12/29 03:58:08;;;;;;;;;;;9.70;99.90;;;;;;4993909;28;19916;-75
2021/12/29 04:00:34;;;;;;;;;;;9.70;99.90;;;;;;4976841;28;19913;-76
2021/12/29 04:02:59;;;;;;;;;;;9.70;99.90;;;;;;4994217;28;19910;-75
2021/12/29 04:05:25;;;;;;;;;;;9.70;99.90;;;;;;4993929;28;20339;-74
2021/12/29 04:07:53;;;;;;;;;;;9.70;99.90;;;;;;4977098;28;19997;-75
2021/12/29 04:10:18;;;;;;;;;;;9.70;99.90;;;;;;4977241;28;19913;-77
2021/12/29 04:12:44;;;;;;;;;;;9.70;99.90;;;;;;4992797;28;19906;-78
2021/12/29 04:15:11;;;;;;;;;;;9.60;99.90;;;;;;4993123;28;19997;-76
2021/12/29 04:17:38;;;;;;;;;;;9.60;99.90;;;;;;4994327;28;19937;-76
2021/12/29 04:22:48;;;;;;;;;;;9.70;99.90;;;;;;4993827;28;20021;-82
2021/12/29 04:25:14;;;;;;;;;;;9.70;99.90;;;;;;4993914;28;19909;-77
2021/12/29 04:27:41;;;;;;;;;;;9.70;99.90;;;;;;4993628;28;19912;-78
2021/12/29 04:30:06;;;;;;;;;;;9.70;99.90;;;;;;4992987;28;19917;-79
2021/12/29 04:32:32;;;;;;;;;;;9.70;99.90;;;;;;4992748;28;19906;-77
2021/12/29 04:34:58;;;;;;;;;;;9.70;99.90;;;;;;4994268;28;19941;-77
2021/12/29 04:37:24;;;;;;;;;;;9.70;99.90;;;;;;4998534;28;19975;-76
2021/12/29 04:39:49;;;;;;;;;;;9.70;99.90;;;;;;4997408;28;19956;-82
2021/12/29 04:42:15;;;;;;;;;;;9.70;99.90;;;;;;4996666;28;20337;-76
2021/12/29 04:44:41;;;;;;;;;;;9.70;99.90;;;;;;4996316;28;20371;-76
2021/12/29 04:47:08;;;;;;;;;;;9.80;99.90;;;;;;4997938;28;19932;-77
2021/12/29 04:49:40;;;;;;;;;;;9.80;99.90;;;;;;4979922;28;19910;-75
2021/12/29 04:52:06;;;;;;;;;;;9.70;99.90;;;;;;4996144;28;19910;-77
2021/12/29 04:54:33;;;;;;;;;;;9.80;99.90;;;;;;4997471;28;19905;-76
2021/12/29 04:56:59;;;;;;;;;;;9.80;99.90;;;;;;4996447;28;19914;-76
2021/12/29 04:59:25;;;;;;;;;;;9.80;99.90;;;;;;4996051;28;19909;-77
2021/12/29 05:01:51;;;;;;;;;;;9.70;99.90;;;;;;4979853;28;20418;-83
2021/12/29 05:04:22;;;;;;;;;;;9.70;99.90;;;;;;4995868;28;19953;-76
2021/12/29 05:09:32;;;;;;;;;;;9.70;99.90;;;;;;4996829;28;19916;-77
2021/12/29 05:12:01;;;;;;;;;;;9.70;99.90;;;;;;4980370;28;20000;-77
2021/12/29 05:14:27;;;;;;;;;;;9.70;99.90;;;;;;4995677;28;19937;-76
2021/12/29 05:16:53;;;;;;;;;;;9.70;99.90;;;;;;4996725;28;20386;-83
2021/12/29 05:19:19;;;;;;;;;;;9.70;99.90;;;;;;4995827;28;19916;-80
2021/12/29 05:21:44;;;;;;;;;;;9.70;99.90;;;;;;4979387;28;19914;-76
2021/12/29 05:24:10;;;;;;;;;;;9.70;99.90;;;;;;4997265;28;19920;-76
2021/12/29 05:26:35;;;;;;;;;;;9.70;99.90;;;;;;4996946;28;19912;-76
2021/12/29 05:29:02;;;;;;;;;;;9.70;99.90;;;;;;4995693;28;19948;-77
2021/12/29 05:31:27;;;;;;;;;;;9.70;99.90;;;;;;4995679;28;19905;-76
2021/12/29 05:33:54;;;;;;;;;;;9.70;99.90;;;;;;4996646;28;19913;-79
2021/12/29 05:36:19;;;;;;;;;;;9.70;99.90;;;;;;4995287;28;20000;-76
2021/12/29 05:38:45;;;;;;;;;;;9.70;99.90;;;;;;4995319;28;20406;-76
2021/12/29 05:41:10;;;;;;;;;;;9.70;99.90;;;;;;4996141;28;19917;-77
2021/12/29 05:43:36;;;;;;;;;;;9.60;99.90;;;;;;4995235;28;19910;-76
2021/12/29 05:46:02;;;;;;;;;;;9.60;99.90;;;;;;4995160;28;19922;-76
2021/12/29 05:48:27;;;;;;;;;;;9.70;99.90;;;;;;4996412;28;19905;-77
2021/12/29 05:50:53;;;;;;;;;;;9.70;99.90;;;;;;4995030;28;20434;-77
2021/12/29 05:53:18;;;;;;;;;;;9.70;99.90;;;;;;4996552;28;19908;-76
2021/12/29 05:55:44;;;;;;;;;;;9.60;99.90;;;;;;4978891;28;20317;-77
2021/12/29 05:58:10;;;;;;;;;;;9.60;99.90;;;;;;4994964;28;20008;-76
2021/12/29 06:00:37;;;;;;;;;;;9.60;99.90;;;;;;4979445;28;19913;-77
2021/12/29 06:03:03;;;;;;;;;;;9.60;99.90;;;;;;4994790;28;19910;-77
2021/12/29 06:05:29;;;;;;;;;;;9.60;99.90;;;;;;4995721;28;20246;-76
2021/12/29 06:07:54;;;;;;;;;;;9.60;99.90;;;;;;4994764;28;19905;-77
2021/12/29 06:10:20;;;;;;;;;;;9.60;99.90;;;;;;4996861;28;19996;-76
2021/12/29 06:12:45;;;;;;;;;;;9.60;99.90;;;;;;4996050;28;19960;-76
2021/12/29 06:15:11;;;;;;;;;;;9.70;99.90;;;;;;4994495;28;19910;-78
2021/12/29 06:17:37;;;;;;;;;;;9.70;99.90;;;;;;4995602;28;19916;-76
2021/12/29 06:20:04;;;;;;;;;;;9.70;99.90;;;;;;4995373;28;20382;-84
2021/12/29 06:22:29;;;;;;;;;;;9.70;99.90;;;;;;4994738;28;19932;-77
2021/12/29 06:24:55;;;;;;;;;;;9.70;99.90;;;;;;4978193;28;19910;-77
2021/12/29 06:27:21;;;;;;;;;;;9.70;99.90;;;;;;4978459;28;20348;-76
2021/12/29 06:29:47;;;;;;;;;;;9.70;99.90;;;;;;4996193;28;19916;-76
2021/12/29 06:32:13;;;;;;;;;;;9.70;99.90;;;;;;4994611;28;19992;-76
2021/12/29 06:34:39;;;;;;;;;;;9.70;99.90;;;;;;4995600;28;19916;-77
2021/12/29 06:37:08;;;;;;;;;;;9.70;99.90;;;;;;4994190;28;19910;-82
2021/12/29 06:39:37;;;;;;;;;;;9.70;99.90;;;;;;4994935;28;19917;-76
2021/12/29 06:42:03;;;;;;;;;;;9.70;99.90;;;;;;4994166;28;20270;-82
2021/12/29 06:44:29;;;;;;;;;;;9.70;99.90;;;;;;4995221;28;19913;-77
2021/12/29 06:46:54;;;;;;;;;;;9.70;99.90;;;;;;4993567;28;19925;-78
2021/12/29 06:49:21;;;;;;;;;;;9.70;99.90;;;;;;4993880;28;19913;-78
2021/12/29 06:51:46;;;;;;;;;;;9.70;99.90;;;;;;4995202;28;19909;-77
2021/12/29 06:54:12;;;;;;;;;;;9.60;99.90;;;;;;4995042;28;19983;-78
2021/12/29 06:56:37;;;;;;;;;;;9.60;99.90;;;;;;4994643;28;19909;-79
2021/12/29 06:59:03;;;;;;;;;;;9.70;99.90;;;;;;4993465;28;19916;-78
2021/12/29 07:01:28;;;;;;;;;;;9.70;99.90;;;;;;4993842;28;19914;-78
2021/12/29 07:03:54;;;;;;;;;;;9.70;99.90;;;;;;4995077;28;19910;-77
2021/12/29 07:06:19;;;;;;;;;;;9.70;99.90;;;;;;4994953;28;19909;-78
2021/12/29 07:08:45;;;;;;;;;;;9.70;99.90;;;;;;4977395;28;19916;-78
2021/12/29 07:11:10;;;;;;;;;;;9.80;99.90;;;;;;4994908;28;19910;-79
2021/12/29 07:13:36;;;;;;;;;;;9.80;99.90;;;;;;4993744;28;19983;-79
2021/12/29 07:16:01;;;;;;;;;;;9.70;99.90;;;;;;4993797;28;19997;-78
2021/12/29 07:18:27;;;;;;;;;;;9.80;99.90;;;;;;4994342;28;19909;-78
2021/12/29 07:20:53;;;;;;;;;;;9.80;99.90;;;;;;4993403;28;19921;-78
2021/12/29 07:23:18;;;;;;;;;;;9.90;99.90;;;;;;4993405;28;19914;-78
2021/12/29 07:25:44;;;;;;;;;;;9.90;99.90;;;;;;4993531;28;19959;-78
2021/12/29 07:28:09;;;;;;;;;;;9.90;99.90;;;;;;4993843;28;19916;-83
2021/12/29 07:30:35;;;;;;;;;;;9.80;99.90;;;;;;4978139;28;19909;-79
2021/12/29 07:33:01;;;;;;;;;;;9.90;99.90;;;;;;4994325;28;20338;-78
2021/12/29 07:35:27;;;;;;;;;;;9.90;99.90;;;;;;4993253;28;19993;-78
2021/12/29 07:37:52;;;;;;;;;;;9.90;99.90;;;;;;4994232;28;19905;-79
2021/12/29 07:40:18;;;;;;;;;;;9.90;99.90;;;;;;4994664;28;20330;-78
2021/12/29 07:42:45;;;;;;;;;;;9.90;99.90;;;;;;4977292;28;20016;-79
2021/12/29 07:45:11;;;;;;;;;;;9.80;99.90;;;;;;4992699;28;19906;-78
2021/12/29 07:47:40;;;;;;;;;;;9.80;99.90;;;;;;4993501;28;19914;-79
2021/12/29 07:50:06;;;;;;;;;;;9.90;99.90;;;;;;4977232;28;20299;-78
2021/12/29 07:52:31;;;;;;;;;;;9.90;99.90;;;;;;4994076;28;20310;-78
2021/12/29 07:54:57;;;;;;;;;;;9.90;99.90;;;;;;4977632;28;19910;-78
2021/12/29 07:57:22;;;;;;;;;;;9.90;99.90;;;;;;4994356;28;20269;-78
2021/12/29 07:59:48;;;;;;;;;;;9.90;99.90;;;;;;4993761;28;19909;-77
2021/12/29 08:02:16;;;;;;;;;;;10.00;99.90;;;;;;4976848;28;20328;-84
2021/12/29 08:04:41;;;;;;;;;;;9.90;99.90;;;;;;4993384;28;19913;-78
2021/12/29 08:07:07;;;;;;;;;;;9.90;99.90;;;;;;4993309;28;20354;-78
2021/12/29 08:09:32;;;;;;;;;;;9.90;99.90;;;;;;4994128;28;20253;-82
2021/12/29 08:11:58;;;;;;;;;;;9.90;99.90;;;;;;4996617;28;19906;-81
2021/12/29 08:14:23;;;;;;;;;;;9.90;99.90;;;;;;4980777;28;20442;-78
2021/12/29 08:16:49;;;;;;;;;;;9.90;99.90;;;;;;4996851;28;19910;-79
2021/12/29 08:19:16;;;;;;;;;;;10.00;99.90;;;;;;4996771;28;19914;-78
2021/12/29 08:21:41;;;;;;;;;;;9.90;99.90;;;;;;4980452;28;19914;-83
2021/12/29 08:24:07;;;;;;;;;;;9.90;99.90;;;;;;4996767;28;19918;-83
2021/12/29 08:26:33;;;;;;;;;;;10.00;99.90;;;;;;4996448;28;19938;-80
2021/12/29 08:29:01;;;;;;;;;;;10.00;99.90;;;;;;4996386;28;19906;-79
2021/12/29 08:31:27;;;;;;;;;;;10.00;99.90;;;;;;4980472;28;19921;-79
2021/12/29 08:33:53;;;;;;;;;;;10.00;99.90;;;;;;4996296;28;19925;-81
2021/12/29 08:36:18;;;;;;;;;;;10.10;99.90;;;;;;4997042;28;19906;-81
2021/12/29 08:38:44;;;;;;;;;;;10.10;99.90;;;;;;4997604;28;19917;-81
2021/12/29 08:41:12;;;;;;;;;;;10.10;99.90;;;;;;4996347;28;19914;-78
2021/12/29 08:43:38;;;;;;;;;;;10.10;99.90;;;;;;4997324;28;19906;-79
2021/12/29 08:46:04;;;;;;;;;;;10.10;99.90;;;;;;4995726;28;19924;-77
2021/12/29 08:48:29;;;;;;;;;;;10.10;99.90;;;;;;4996179;28;19917;-77
2021/12/29 08:50:59;;;;;;;;;;;10.10;99.90;;;;;;4981228;28;19945;-78
2021/12/29 08:53:25;;;;;;;;;;;10.20;99.90;;;;;;4997431;28;20350;-82
2021/12/29 08:55:51;;;;;;;;;;;10.20;99.90;;;;;;4999856;28;19956;-77
2021/12/29 08:58:17;;;;;;;;;;;10.20;99.90;;;;;;4997846;28;19913;-80
2021/12/29 09:00:43;;;;;;;;;;;10.20;99.90;;;;;;4996551;28;19910;-81
2021/12/29 09:03:08;;;;;;;;;;;10.20;99.90;;;;;;4998680;28;19960;-79
2021/12/29 09:05:34;;;;;;;;;;;10.20;99.90;;;;;;4998635;28;19906;-80
2021/12/29 09:08:00;;;;;;;;;;;10.20;99.90;;;;;;4981306;28;19925;-84
2021/12/29 09:10:25;;;;;;;;;;;10.20;99.90;;;;;;4996645;28;19929;-78
2021/12/29 09:12:51;;;;;;;;;;;10.30;99.90;;;;;;4998244;28;19920;-80
2021/12/29 09:15:21;;;;;;;;;;;10.30;99.90;;;;;;4996850;28;19922;-79
2021/12/29 09:17:46;;;;;;;;;;;10.20;99.90;;;;;;4999775;28;19914;-80
2021/12/29 09:20:24;;;;;;;;;;;10.20;99.90;;;;;;5001666;28;20410;-78
2021/12/29 09:22:50;;;;;;;;;;;10.20;99.90;;;;;;4999121;28;19936;-78
2021/12/29 09:25:18;;;;;;;;;;;10.20;99.90;;;;;;5000446;28;19910;-77
2021/12/29 09:27:47;;;;;;;;;;;10.20;99.90;;;;;;4999623;28;19948;-77
2021/12/29 09:30:13;;;;;;;;;;;10.30;99.90;;;;;;5001012;28;20339;-81
2021/12/29 09:32:39;;;;;;;;;;;10.30;99.90;;;;;;4982694;28;20380;-79
2021/12/29 09:35:04;;;;;;;;;;;10.30;99.90;;;;;;4996095;28;19937;-77
2021/12/29 09:37:30;;;;;;;;;;;10.40;99.90;;;;;;4999174;28;20270;-78
2021/12/29 09:39:56;;;;;;;;;;;10.50;99.90;;;;;;4996335;28;20004;-78
2021/12/29 09:42:22;;;;;;;;;;;10.50;99.90;;;;;;4995513;28;20274;-78
2021/12/29 09:44:48;;;;;;;;;;;10.50;99.90;;;;;;4996710;28;20317;-77
2021/12/29 09:47:14;;;;;;;;;;;10.50;99.90;;;;;;4997524;28;19924;-78
2021/12/29 09:49:39;;;;;;;;;;;10.60;99.90;;;;;;4996665;28;20350;-78
2021/12/29 09:52:05;;;;;;;;;;;10.60;99.90;;;;;;4979492;28;20251;-78
2021/12/29 09:54:31;;;;;;;;;;;10.60;99.90;;;;;;4995584;28;20274;-78
2021/12/29 09:56:57;;;;;;;;;;;10.60;99.90;;;;;;4996787;28;19909;-78
2021/12/29 09:59:23;;;;;;;;;;;10.60;99.90;;;;;;4978820;28;20382;-78
2021/12/29 10:01:48;;;;;;;;;;;10.70;99.90;;;;;;4995493;28;19915;-78
2021/12/29 10:04:14;;;;;;;;;;;11.10;99.90;;;;;;4995052;28;20342;-78
2021/12/29 10:06:40;;;;;;;;;;;11.60;99.90;;;;;;4994744;28;20273;-78
2021/12/29 10:09:10;;;;;;;;;;;11.80;99.90;;;;;;4994852;28;19956;-78
2021/12/29 10:11:36;;;;;;;;;;;12.00;99.90;;;;;;4994630;28;19913;-78
2021/12/29 10:14:06;;;;;;;;;;;12.20;99.90;;;;;;4994713;28;19959;-78
2021/12/29 10:16:31;;;;;;;;;;;12.00;99.90;;;;;;4994608;28;19909;-83
2021/12/29 10:19:07;;;;;;;;;;;11.90;99.90;;;;;;4994458;28;19906;-79
2021/12/29 10:21:35;;;;;;;;;;;11.70;99.90;;;;;;4994339;28;19910;-78
2021/12/29 10:24:01;;;;;;;;;;;11.50;99.90;;;;;;4994510;28;19916;-78
2021/12/29 10:26:28;;;;;;;;;;;11.50;99.90;;;;;;4994413;28;19917;-78
2021/12/29 10:28:55;;;;;;;;;;;11.50;99.90;;;;;;4994567;28;20342;-78
2021/12/29 10:31:22;;;;;;;;;;;11.70;99.90;;;;;;4994248;28;19988;-78
2021/12/29 10:33:50;;;;;;;;;;;11.90;99.90;;;;;;4994009;28;20436;-80
2021/12/29 10:36:19;;;;;;;;;;;12.10;99.90;;;;;;4994382;28;19906;-79
2021/12/29 10:38:46;;;;;;;;;;;12.40;99.90;;;;;;4994116;28;19913;-79
2021/12/29 10:41:11;;;;;;;;;;;12.80;99.90;;;;;;4994423;28;19957;-80
2021/12/29 10:43:40;;;;;;;;;;;13.00;99.90;;;;;;4994058;28;20381;-80
2021/12/29 10:46:17;;;;;;;;;;;13.30;99.90;;;;;;4994242;28;19924;-79
2021/12/29 10:48:45;;;;;;;;;;;13.30;99.60;;;;;;4994465;28;19910;-79
2021/12/29 10:51:11;;;;;;;;;;;13.20;99.20;;;;;;4996055;28;19960;-79
2021/12/29 10:53:38;;;;;;;;;;;13.00;99.30;;;;;;4977796;28;19914;-80
2021/12/29 10:56:04;;;;;;;;;;;12.90;99.70;;;;;;4994350;28;19976;-79
2021/12/29 10:58:32;;;;;;;;;;;12.80;99.70;;;;;;4995392;28;19945;-83
2021/12/29 11:01:08;;;;;;;;;;;12.60;99.50;;;;;;4994866;28;19909;-79
2021/12/29 11:03:34;;;;;;;;;;;12.40;99.90;;;;;;4994470;28;19910;-86
2021/12/29 11:06:02;;;;;;;;;;;12.40;99.90;;;;;;4998007;28;20004;-79
2021/12/29 11:08:45;;;;;;;;;;;12.30;99.90;;;;;;4994851;28;20259;-79
2021/12/29 11:11:10;;;;;;;;;;;12.20;99.90;;;;;;4994021;28;19914;-79
2021/12/29 11:13:36;;;;;;;;;;;12.10;99.90;;;;;;4994767;28;19925;-84
2021/12/29 11:16:03;;;;;;;;;;;12.00;99.90;;;;;;4978461;28;19910;-79
2021/12/29 11:18:41;;;;;;;;;;;12.00;99.90;;;;;;4994049;28;19949;-79
2021/12/29 11:21:06;;;;;;;;;;;11.90;99.90;;;;;;4994804;28;19910;-79
2021/12/29 11:23:32;;;;;;;;;;;11.90;99.90;;;;;;4993447;28;19910;-83
2021/12/29 11:26:00;;;;;;;;;;;11.90;99.90;;;;;;4994348;28;19905;-79
2021/12/29 11:28:27;;;;;;;;;;;11.80;99.90;;;;;;4994019;28;20000;-79
2021/12/29 11:30:53;;;;;;;;;;;11.80;99.90;;;;;;4993325;28;19913;-82
2021/12/29 11:33:19;;;;;;;;;;;11.60;99.90;;;;;;4993571;28;19905;-78
2021/12/29 11:35:47;;;;;;;;;;;11.60;99.90;;;;;;4993476;28;19905;-79
2021/12/29 11:38:13;;;;;;;;;;;11.50;99.90;;;;;;4994253;28;19913;-79
2021/12/29 11:40:40;;;;;;;;;;;11.50;99.90;;;;;;4976810;28;19914;-82
2021/12/29 11:43:09;;;;;;;;;;;11.40;99.90;;;;;;4994396;28;19917;-78
2021/12/29 11:45:35;;;;;;;;;;;11.40;99.90;;;;;;4993792;28;19905;-79
2021/12/29 11:48:01;;;;;;;;;;;11.40;99.90;;;;;;4993798;28;19910;-79
2021/12/29 11:50:28;;;;;;;;;;;11.30;99.90;;;;;;4993932;28;19917;-79
2021/12/29 11:53:09;;;;;;;;;;;11.40;99.90;;;;;;4992828;28;19952;-83
2021/12/29 11:56:14;;;;;;;;;;;11.40;99.90;;;;;;4994017;28;19906;-79
2021/12/29 11:58:43;;;;;;;;;;;11.40;99.90;;;;;;4982884;28;19910;-81
2021/12/29 12:01:11;;;;;;;;;;;11.30;99.90;;;;;;4994212;28;19909;-79
2021/12/29 12:03:38;;;;;;;;;;;11.20;99.90;;;;;;4992807;28;19917;-79
2021/12/29 12:06:06;;;;;;;;;;;11.10;99.90;;;;;;4992980;28;20400;-79
2021/12/29 12:08:32;;;;;;;;;;;11.00;99.90;;;;;;4993632;28;19914;-79
2021/12/29 12:11:00;;;;;;;;;;;11.00;99.90;;;;;;4976323;28;20010;-82
2021/12/29 12:13:26;;;;;;;;;;;10.90;99.90;;;;;;4993232;28;19906;-78
2021/12/29 12:16:03;;;;;;;;;;;11.00;99.90;;;;;;4994177;28;20436;-79
2021/12/29 12:18:51;;;;;;;;;;;11.00;99.90;;;;;;4993087;28;20004;-79
2021/12/29 12:21:25;;;;;;;;;;;11.00;99.90;;;;;;4993622;28;19914;-79
2021/12/29 12:23:52;;;;;;;;;;;11.10;99.90;;;;;;4993171;28;20313;-78
2021/12/29 12:26:22;;;;;;;;;;;11.10;99.90;;;;;;4992951;28;19996;-82
2021/12/29 12:28:49;;;;;;;;;;;11.10;99.90;;;;;;4992606;28;19914;-78
2021/12/29 12:31:26;;;;;;;;;;;11.10;99.90;;;;;;4992689;28;19906;-78
2021/12/29 12:33:52;;;;;;;;;;;11.00;99.90;;;;;;4992400;28;19929;-78
2021/12/29 12:36:18;;;;;;;;;;;11.10;99.90;;;;;;4993339;28;20260;-78
2021/12/29 12:38:44;;;;;;;;;;;11.10;99.90;;;;;;4976539;28;19916;-80
2021/12/29 12:41:17;;;;;;;;;;;11.10;99.90;;;;;;4992664;28;19910;-79
2021/12/29 12:43:51;;;;;;;;;;;11.20;99.90;;;;;;4993838;28;20359;-79
2021/12/29 12:46:33;;;;;;;;;;;11.10;99.90;;;;;;4992094;28;19964;-77
2021/12/29 12:48:59;;;;;;;;;;;11.20;99.90;;;;;;4992584;28;20255;-78
2021/12/29 12:51:25;;;;;;;;;;;11.10;99.90;;;;;;4976318;28;19953;-78
2021/12/29 12:53:51;;;;;;;;;;;11.10;99.90;;;;;;4992653;28;19912;-78
2021/12/29 12:56:18;;;;;;;;;;;11.10;99.90;;;;;;4996522;28;20347;-78
2021/12/29 12:58:45;;;;;;;;;;;11.10;99.90;;;;;;4997284;28;19912;-79
2021/12/29 13:01:13;;;;;;;;;;;11.10;99.90;;;;;;4995842;28;19997;-80
2021/12/29 13:03:39;;;;;;;;;;;10.90;99.90;;;;;;4997829;28;19909;-78
2021/12/29 13:06:09;;;;;;;;;;;10.80;99.90;;;;;;4996008;28;19905;-77
2021/12/29 13:08:40;;;;;;;;;;;10.80;99.90;;;;;;4997160;28;20350;-77
2021/12/29 13:11:06;;;;;;;;;;;10.80;99.90;;;;;;4995772;28;19913;-78
2021/12/29 13:13:36;;;;;;;;;;;10.80;99.90;;;;;;4996648;28;19906;-80
2021/12/29 13:16:03;;;;;;;;;;;10.70;99.90;;;;;;4997002;28;19906;-77
2021/12/29 13:18:29;;;;;;;;;;;10.60;99.90;;;;;;4997025;28;19905;-78
2021/12/29 13:20:57;;;;;;;;;;;10.60;99.90;;;;;;4995772;28;19909;-78
2021/12/29 13:23:22;;;;;;;;;;;10.60;99.90;;;;;;4995531;28;19992;-78
2021/12/29 13:25:49;;;;;;;;;;;10.60;99.90;;;;;;4995820;28;20314;-78
2021/12/29 13:28:16;;;;;;;;;;;10.60;99.90;;;;;;4995388;28;19906;-78
2021/12/29 13:30:50;;;;;;;;;;;10.60;99.90;;;;;;4979549;28;19910;-78
2021/12/29 13:33:20;;;;;;;;;;;10.60;99.90;;;;;;4996244;28;19968;-78
2021/12/29 13:35:46;;;;;;;;;;;10.60;99.90;;;;;;4995513;28;19906;-78
2021/12/29 13:38:13;;;;;;;;;;;10.50;99.90;;;;;;4995925;28;19948;-78
2021/12/29 13:40:39;;;;;;;;;;;10.50;99.90;;;;;;4995196;28;20393;-79
2021/12/29 13:43:12;;;;;;;;;;;10.50;99.90;;;;;;4995309;28;19910;-78
2021/12/29 13:45:39;;;;;;;;;;;10.50;99.90;;;;;;4995197;28;19912;-78
2021/12/29 13:48:05;;;;;;;;;;;10.50;99.90;;;;;;4995436;28;20005;-78
2021/12/29 13:50:31;;;;;;;;;;;10.40;99.90;;;;;;4996818;28;19906;-78
2021/12/29 13:52:59;;;;;;;;;;;10.40;99.90;;;;;;4996219;28;20432;-79
2021/12/29 13:55:30;;;;;;;;;;;10.40;99.90;;;;;;4996515;28;19906;-78
2021/12/29 13:57:57;;;;;;;;;;;10.40;99.90;;;;;;4996072;28;19992;-84
2021/12/29 14:00:23;;;;;;;;;;;10.30;99.90;;;;;;4996102;28;19914;-78
2021/12/29 14:02:48;;;;;;;;;;;10.30;99.90;;;;;;4995005;28;19968;-82
2021/12/29 14:05:15;;;;;;;;;;;10.30;99.90;;;;;;4978692;28;19925;-77
2021/12/29 14:07:40;;;;;;;;;;;10.30;99.90;;;;;;4977896;28;19916;-78
2021/12/29 14:10:07;;;;;;;;;;;10.20;99.90;;;;;;4978663;28;19909;-76
2021/12/29 14:12:35;;;;;;;;;;;10.20;99.90;;;;;;4994232;28;19905;-77
2021/12/29 14:15:02;;;;;;;;;;;10.20;99.90;;;;;;4996261;28;19980;-77
2021/12/29 14:17:28;;;;;;;;;;;10.20;99.90;;;;;;4995478;28;20433;-78
2021/12/29 14:20:03;;;;;;;;;;;10.20;99.90;;;;;;4995701;28;19946;-79
2021/12/29 14:22:29;;;;;;;;;;;10.20;99.90;;;;;;4996154;28;19909;-79
2021/12/29 14:24:55;;;;;;;;;;;10.30;99.90;;;;;;4994357;28;19910;-78
2021/12/29 14:27:22;;;;;;;;;;;10.20;99.90;;;;;;4995339;28;20309;-79
2021/12/29 14:29:47;;;;;;;;;;;10.20;99.90;;;;;;4994160;28;19906;-78